createdAt,value
2023-05-15T00:01:26.584Z,11.60
2023-05-15T00:04:08.902Z,11.25
2023-05-15T00:06:37.212Z,11.63
2023-05-15T00:09:06.108Z,10.85
2023-05-15T00:11:48.141Z,10.88
2023-05-15T00:14:16.261Z,11.55
2023-05-15T00:20:00.926Z,11.30
2023-05-15T00:22:35.534Z,11.68
2023-05-15T00:25:03.480Z,11.02
2023-05-15T00:27:35.662Z,11.20
2023-05-15T00:30:07.369Z,11.30
2023-05-15T00:32:35.453Z,10.77
2023-05-15T00:35:23.697Z,9.90
2023-05-15T00:37:53.100Z,10.02
2023-05-15T00:40:23.914Z,9.80
2023-05-15T00:42:55.922Z,10.13
2023-05-15T00:45:32.268Z,9.70
2023-05-15T00:48:11.347Z,9.60
2023-05-15T00:50:51.917Z,9.73
2023-05-15T00:53:40.146Z,9.88
2023-05-15T00:56:17.454Z,9.95
2023-05-15T00:58:49.112Z,10.60
2023-05-15T01:01:27.226Z,9.55
2023-05-15T01:03:55.748Z,10.30
2023-05-15T01:06:46.263Z,11.10
2023-05-15T01:09:37.247Z,10.18
2023-05-15T01:12:06.921Z,9.48
2023-05-15T01:17:48.448Z,9.55
2023-05-15T01:20:19.998Z,9.68
2023-05-15T01:23:08.593Z,8.88
2023-05-15T01:25:39.908Z,9.15
2023-05-15T01:28:28.076Z,8.82
2023-05-15T01:30:57.962Z,9.43
2023-05-15T01:33:35.949Z,8.73
2023-05-15T01:36:13.218Z,9.15
2023-05-15T01:38:58.823Z,8.57
2023-05-15T01:41:40.522Z,9.05
2023-05-15T01:44:10.530Z,8.68
2023-05-15T01:46:58.213Z,8.32
2023-05-15T01:49:29.109Z,8.93
2023-05-15T01:52:01.090Z,9.63
2023-05-15T01:54:38.877Z,9.32
2023-05-15T01:57:13.522Z,9.55
2023-05-15T01:59:56.057Z,10.02
2023-05-15T02:02:34.331Z,9.77
2023-05-15T02:05:11.452Z,10.40
2023-05-15T02:07:42.677Z,8.40
2023-05-15T02:10:12.283Z,6.78
2023-05-15T02:12:57.490Z,7.03
2023-05-15T02:15:29.643Z,7.70
2023-05-15T02:18:04.961Z,5.07
2023-05-15T02:21:04.487Z,5.80
2023-05-15T02:23:33.446Z,5.50
2023-05-15T02:26:22.836Z,7.22
2023-05-15T02:28:54.182Z,5.10
2023-05-15T02:31:31.531Z,5.30
2023-05-15T02:34:34.529Z,5.75
2023-05-15T02:37:06.177Z,6.60
2023-05-15T02:39:35.019Z,6.40
2023-05-15T02:42:03.429Z,6.03
2023-05-15T02:44:34.328Z,5.30
2023-05-15T02:47:03.008Z,4.82
2023-05-15T02:49:44.469Z,5.70
2023-05-15T02:52:12.496Z,6.13
2023-05-15T02:54:40.693Z,6.13
2023-05-15T02:57:14.962Z,6.25
2023-05-15T02:59:46.995Z,6.68
2023-05-15T03:02:32.323Z,6.25
2023-05-15T03:05:07.354Z,6.18
2023-05-15T03:07:57.693Z,6.47
2023-05-15T03:10:25.917Z,5.68
2023-05-15T03:13:04.083Z,4.53
2023-05-15T03:15:39.558Z,4.65
2023-05-15T03:18:36.228Z,4.40
2023-05-15T03:21:25.763Z,3.30
2023-05-15T03:24:07.640Z,3.83
2023-05-15T03:27:04.675Z,3.63
2023-05-15T03:32:39.690Z,1.85
2023-05-15T03:35:27.803Z,2.45
2023-05-15T03:38:17.684Z,2.00
2023-05-15T03:41:08.819Z,1.80
2023-05-15T03:43:38.775Z,1.20
2023-05-15T03:46:16.899Z,1.27
2023-05-15T03:48:59.428Z,1.30
2023-05-15T03:51:36.197Z,1.13
2023-05-15T03:54:21.879Z,1.00
2023-05-15T03:56:52.196Z,1.02
2023-05-15T03:59:33.833Z,1.25
2023-05-15T04:02:08.278Z,1.35
2023-05-15T04:04:42.758Z,1.25
2023-05-15T04:07:17.994Z,2.08
2023-05-15T04:09:55.109Z,1.40
2023-05-15T04:13:01.281Z,1.63
2023-05-15T04:15:55.409Z,1.40
2023-05-15T04:18:34.775Z,1.27
2023-05-15T04:21:06.285Z,0.90
2023-05-15T04:26:33.521Z,1.73
2023-05-15T04:29:11.056Z,1.10
2023-05-15T04:32:02.183Z,1.10
2023-05-15T04:34:47.666Z,0.82
2023-05-15T04:37:34.623Z,0.70
2023-05-15T04:40:11.201Z,0.63
2023-05-15T04:42:39.821Z,0.70
2023-05-15T04:45:08.533Z,0.80
2023-05-15T04:47:38.818Z,0.60
2023-05-15T04:50:39.899Z,0.75
2023-05-15T04:53:09.984Z,0.60
2023-05-15T04:55:56.299Z,0.50
2023-05-15T04:58:27.691Z,0.75
2023-05-15T05:01:12.132Z,0.73
2023-05-15T05:03:40.210Z,0.60
2023-05-15T05:06:12.730Z,0.60
2023-05-15T05:08:56.042Z,0.80
2023-05-15T05:11:25.284Z,0.93
2023-05-15T05:14:16.278Z,0.80
2023-05-15T05:16:51.796Z,0.80
2023-05-15T05:19:58.796Z,0.98
2023-05-15T05:22:32.715Z,0.88
2023-05-15T05:25:02.068Z,0.73
2023-05-15T05:27:31.102Z,1.00
2023-05-15T05:30:00.225Z,1.00
2023-05-15T05:32:37.575Z,1.27
2023-05-15T05:35:06.031Z,1.15
2023-05-15T05:38:11.663Z,1.90
2023-05-15T05:40:40.554Z,1.80
2023-05-15T05:43:27.178Z,1.88
2023-05-15T05:46:15.481Z,1.90
2023-05-15T05:48:53.009Z,3.05
2023-05-15T05:51:31.396Z,3.22
2023-05-15T05:54:03.827Z,3.78
2023-05-15T05:56:37.837Z,4.20
2023-05-15T05:59:38.972Z,3.72
2023-05-15T06:02:16.049Z,3.85
2023-05-15T06:04:45.545Z,3.20
2023-05-15T06:07:23.574Z,3.75
2023-05-15T06:09:58.445Z,3.55
2023-05-15T06:12:26.713Z,3.88
2023-05-15T06:15:01.799Z,3.85
2023-05-15T06:17:48.287Z,3.97
2023-05-15T06:20:38.503Z,3.38
2023-05-15T06:23:24.498Z,3.33
2023-05-15T06:25:59.716Z,3.47
2023-05-15T06:28:33.523Z,3.65
2023-05-15T06:31:02.768Z,3.55
2023-05-15T06:36:49.181Z,3.03
2023-05-15T06:39:19.273Z,3.20
2023-05-15T06:42:16.636Z,3.03
2023-05-15T06:44:52.022Z,3.38
2023-05-15T06:47:32.540Z,3.53
2023-05-15T06:50:07.013Z,3.65
2023-05-15T06:52:35.144Z,3.42
2023-05-15T06:55:22.679Z,3.10
2023-05-15T06:57:51.015Z,3.70
2023-05-15T07:00:33.703Z,3.35
2023-05-15T07:03:05.377Z,3.22
2023-05-15T07:05:39.761Z,2.58
2023-05-15T07:08:32.815Z,2.40
2023-05-15T07:11:01.146Z,3.22
2023-05-15T07:13:29.031Z,3.20
2023-05-15T07:15:59.479Z,3.28
2023-05-15T07:18:44.504Z,2.85
2023-05-15T07:21:19.827Z,3.72
2023-05-15T07:24:08.301Z,3.10
2023-05-15T07:26:58.290Z,2.90
2023-05-15T07:29:42.720Z,2.50
2023-05-15T07:32:11.008Z,2.70
2023-05-15T07:34:39.498Z,2.55
2023-05-15T07:37:11.907Z,2.40
2023-05-15T07:39:43.873Z,2.30
2023-05-15T07:42:29.723Z,2.13
2023-05-15T07:44:57.859Z,1.77
2023-05-15T07:47:48.101Z,1.50
2023-05-15T07:50:23.283Z,1.70
2023-05-15T07:52:51.549Z,1.33
2023-05-15T07:55:21.069Z,1.50
2023-05-15T08:00:21.711Z,1.80
2023-05-15T08:03:01.324Z,1.20
2023-05-15T08:08:42.242Z,1.20
2023-05-15T08:11:16.311Z,1.10
2023-05-15T08:13:56.598Z,1.27
2023-05-15T08:16:24.752Z,1.98
2023-05-15T08:19:05.004Z,1.80
2023-05-15T08:21:36.203Z,2.20
2023-05-15T08:24:06.593Z,2.08
2023-05-15T08:26:39.853Z,2.67
2023-05-15T08:29:09.894Z,2.30
2023-05-15T08:31:38.935Z,2.50
2023-05-15T08:34:10.865Z,3.00
2023-05-15T08:36:45.208Z,2.50
2023-05-15T08:39:20.479Z,2.25
2023-05-15T08:41:51.789Z,2.08
2023-05-15T08:44:27.174Z,1.75
2023-05-15T08:46:57.381Z,1.60
2023-05-15T08:49:48.257Z,1.90
2023-05-15T08:52:16.980Z,1.55
2023-05-15T08:54:59.328Z,2.03
2023-05-15T08:57:28.227Z,1.80
2023-05-15T09:00:02.695Z,2.17
2023-05-15T09:02:31.860Z,1.95
2023-05-15T09:05:08.400Z,1.85
2023-05-15T09:07:43.513Z,1.90
2023-05-15T09:10:12.416Z,1.98
2023-05-15T09:12:46.595Z,1.70
2023-05-15T09:15:26.715Z,2.13
2023-05-15T09:18:04.191Z,1.30
2023-05-15T09:20:40.965Z,1.70
2023-05-15T09:23:39.367Z,1.83
2023-05-15T09:26:16.454Z,2.45
2023-05-15T09:28:46.457Z,2.10
2023-05-15T09:31:21.158Z,2.00
2023-05-15T09:34:16.519Z,1.83
2023-05-15T09:36:52.513Z,1.60
2023-05-15T09:39:40.649Z,1.40
2023-05-15T09:42:12.995Z,1.95
2023-05-15T09:44:47.525Z,1.50
2023-05-15T09:47:21.031Z,1.27
2023-05-15T09:50:00.484Z,1.33
2023-05-15T09:52:29.225Z,1.27
2023-05-15T09:55:25.338Z,1.30
2023-05-15T09:58:13.760Z,1.48
2023-05-15T10:01:07.560Z,1.40
2023-05-15T10:03:43.872Z,1.52
2023-05-15T10:06:19.746Z,1.15
2023-05-15T10:09:04.037Z,1.50
2023-05-15T10:11:36.280Z,1.90
2023-05-15T10:14:08.300Z,1.42
2023-05-15T10:16:46.453Z,1.80
2023-05-15T10:19:22.652Z,1.48
2023-05-15T10:22:09.034Z,1.92
2023-05-15T10:24:42.527Z,1.90
2023-05-15T10:27:26.799Z,1.60
2023-05-15T10:29:55.151Z,2.33
2023-05-15T10:32:29.528Z,1.73
2023-05-15T10:35:05.080Z,1.60
2023-05-15T10:37:50.975Z,1.50
2023-05-15T10:40:20.694Z,1.65
2023-05-15T10:42:51.079Z,2.05
2023-05-15T10:45:27.751Z,2.03
2023-05-15T10:48:22.690Z,1.98
2023-05-15T10:51:05.999Z,2.30
2023-05-15T10:53:45.826Z,2.10
2023-05-15T10:56:18.375Z,2.45
2023-05-15T10:59:00.256Z,2.55
2023-05-15T11:01:36.597Z,2.70
2023-05-15T11:04:34.629Z,2.72
2023-05-15T11:07:33.378Z,2.90
2023-05-15T11:10:31.215Z,3.47
2023-05-15T11:13:00.209Z,3.88
2023-05-15T11:15:49.117Z,3.45
2023-05-15T11:18:19.394Z,4.20
2023-05-15T11:21:02.750Z,3.92
2023-05-15T11:23:39.221Z,4.45
2023-05-15T11:26:07.282Z,3.95
2023-05-15T11:28:40.498Z,4.43
2023-05-15T11:31:11.658Z,3.85
2023-05-15T11:33:42.508Z,4.97
2023-05-15T11:36:17.438Z,4.57
2023-05-15T11:42:23.487Z,3.92
2023-05-15T11:45:31.951Z,3.95
2023-05-15T11:48:02.786Z,3.00
2023-05-15T11:50:37.531Z,2.20
2023-05-15T11:53:06.538Z,2.35
2023-05-15T11:56:01.438Z,2.07
2023-05-15T11:58:40.072Z,2.70
2023-05-15T12:10:43.525Z,2.80
2023-05-15T12:13:24.043Z,2.67
2023-05-15T12:16:07.569Z,2.78
2023-05-15T12:18:36.335Z,2.58
2023-05-15T12:27:30.770Z,2.33
2023-05-15T12:30:36.779Z,2.70
2023-05-15T12:33:21.366Z,3.80
2023-05-15T12:36:09.331Z,2.22
2023-05-15T12:38:39.261Z,2.80
2023-05-15T12:41:12.124Z,2.58
2023-05-15T12:43:40.709Z,2.38
2023-05-15T12:46:10.198Z,2.72
2023-05-15T12:48:39.318Z,3.00
2023-05-15T12:51:24.219Z,2.83
2023-05-15T12:54:01.846Z,3.10
2023-05-15T12:56:35.169Z,3.17
2023-05-15T12:59:22.610Z,2.58
2023-05-15T13:02:10.347Z,3.63
2023-05-15T13:04:45.149Z,2.63
2023-05-15T13:07:30.570Z,2.95
2023-05-15T13:10:18.386Z,3.00
2023-05-15T13:12:54.679Z,2.80
2023-05-15T13:15:57.106Z,2.95
2023-05-15T13:22:18.083Z,2.67
2023-05-15T13:24:54.274Z,3.00
2023-05-15T13:30:45.886Z,2.60
2023-05-15T13:33:54.065Z,2.30
2023-05-15T13:36:32.574Z,2.33
2023-05-15T13:39:21.136Z,2.35
2023-05-15T13:42:31.697Z,3.37
2023-05-15T13:45:02.159Z,2.47
2023-05-15T13:47:52.488Z,3.07
2023-05-15T13:50:26.236Z,2.10
2023-05-15T13:52:58.554Z,3.60
2023-05-15T13:55:27.582Z,2.40
2023-05-15T13:58:02.092Z,2.25
2023-05-15T14:00:47.060Z,2.83
2023-05-15T14:03:41.633Z,2.58
2023-05-15T14:09:19.195Z,2.78
2023-05-15T14:11:47.377Z,2.45
2023-05-15T14:14:24.156Z,2.60
2023-05-15T14:16:54.757Z,2.45
2023-05-15T14:19:36.063Z,2.15
2023-05-15T14:22:34.559Z,2.60
2023-05-15T14:27:52.772Z,2.63
2023-05-15T14:30:30.121Z,2.70
2023-05-15T14:32:59.446Z,3.00
2023-05-15T14:36:06.097Z,2.78
2023-05-15T14:38:35.809Z,2.97
2023-05-15T14:41:05.170Z,3.00
2023-05-15T14:43:44.981Z,3.13
2023-05-15T14:46:22.876Z,3.13
2023-05-15T14:48:54.196Z,3.08
2023-05-15T14:54:23.832Z,3.80
2023-05-15T14:56:54.766Z,2.78
2023-05-15T14:59:38.311Z,3.42
2023-05-15T15:02:15.734Z,2.67
2023-05-15T15:04:59.518Z,2.90
2023-05-15T15:07:53.939Z,2.65
2023-05-15T15:10:23.236Z,2.90
2023-05-15T15:12:56.776Z,2.80
2023-05-15T15:15:43.751Z,2.78
2023-05-15T15:18:27.731Z,3.10
2023-05-15T15:21:13.916Z,3.17
2023-05-15T15:23:43.398Z,3.35
2023-05-15T15:26:19.732Z,3.13
2023-05-15T15:28:50.841Z,2.75
2023-05-15T15:31:40.973Z,2.95
2023-05-15T15:34:23.434Z,2.72
2023-05-15T15:37:00.946Z,2.58
2023-05-15T15:39:52.210Z,2.80
2023-05-15T15:42:24.981Z,2.97
2023-05-15T15:44:52.966Z,3.03
2023-05-15T15:47:21.214Z,2.70
2023-05-15T15:49:49.302Z,3.05
2023-05-15T15:52:20.154Z,2.90
2023-05-15T15:54:50.104Z,3.45
2023-05-15T15:57:18.976Z,3.20
2023-05-15T15:59:59.744Z,2.88
2023-05-15T16:02:37.742Z,3.42
2023-05-15T16:05:12.867Z,3.53
2023-05-15T16:07:49.313Z,2.95
2023-05-15T16:10:27.986Z,3.20
2023-05-15T16:12:57.081Z,2.95
2023-05-15T16:15:29.807Z,2.67
2023-05-15T16:18:01.672Z,2.90
2023-05-15T16:20:35.461Z,2.67
2023-05-15T16:23:11.141Z,2.80
2023-05-15T16:25:39.607Z,3.17
2023-05-15T16:28:10.001Z,2.97
2023-05-15T16:30:49.510Z,3.20
2023-05-15T16:33:21.475Z,2.97
2023-05-15T16:38:22.672Z,2.85
2023-05-15T16:40:52.158Z,3.28
2023-05-15T16:43:27.934Z,2.95
2023-05-15T16:46:12.619Z,3.00
2023-05-15T16:48:42.213Z,3.67
2023-05-15T16:51:15.615Z,2.97
2023-05-15T16:53:43.561Z,2.85
2023-05-15T16:56:15.961Z,2.80
2023-05-15T16:58:46.061Z,2.45
2023-05-15T17:01:32.411Z,3.38
2023-05-15T17:04:13.344Z,2.95
2023-05-15T17:06:44.707Z,3.17
2023-05-15T17:11:53.248Z,2.90
2023-05-15T17:14:57.779Z,2.95
2023-05-15T17:17:28.201Z,1.98
2023-05-15T17:20:12.089Z,1.70
2023-05-15T17:22:43.132Z,1.50
2023-05-15T17:25:16.776Z,1.67
2023-05-15T17:28:02.469Z,1.77
2023-05-15T17:30:42.061Z,2.17
2023-05-15T17:33:18.454Z,1.70
2023-05-15T17:35:47.914Z,2.30
2023-05-15T17:38:18.012Z,2.15
2023-05-15T17:40:55.603Z,2.50
2023-05-15T17:43:25.796Z,2.20
2023-05-15T17:45:55.074Z,2.60
2023-05-15T17:48:25.454Z,2.88
2023-05-15T17:51:12.163Z,2.72
2023-05-15T17:53:40.460Z,3.30
2023-05-15T17:56:08.790Z,2.70
2023-05-15T17:58:53.272Z,2.97
2023-05-15T18:01:30.553Z,3.60
2023-05-15T18:04:06.989Z,3.47
2023-05-15T18:13:03.058Z,2.80
2023-05-15T18:15:56.747Z,3.03
2023-05-15T18:22:04.684Z,2.92
2023-05-15T18:24:40.052Z,2.55
2023-05-15T18:27:08.129Z,2.85
2023-05-15T18:29:38.300Z,3.10
2023-05-15T18:32:11.587Z,2.75
2023-05-15T18:34:42.906Z,3.03
2023-05-15T18:37:11.430Z,2.42
2023-05-15T18:39:49.059Z,2.90
2023-05-15T18:42:33.520Z,2.47
2023-05-15T18:45:12.062Z,2.50
2023-05-15T18:47:48.843Z,2.40
2023-05-15T18:50:17.987Z,2.15
2023-05-15T18:59:04.875Z,2.45
2023-05-15T19:04:32.260Z,2.65
2023-05-15T19:07:02.402Z,2.60
2023-05-15T19:09:48.301Z,2.85
2023-05-15T19:12:17.394Z,2.88
2023-05-15T19:15:00.481Z,2.55
2023-05-15T19:30:21.049Z,2.83
2023-05-15T19:39:15.298Z,2.58
2023-05-15T19:45:07.829Z,2.95
2023-05-15T19:51:12.958Z,2.72
2023-05-15T20:03:05.288Z,3.10
2023-05-15T20:05:35.392Z,3.42
2023-05-15T20:08:03.359Z,3.70
2023-05-15T20:10:45.133Z,4.10
2023-05-15T20:13:32.437Z,4.15
2023-05-15T20:19:13.230Z,5.03
2023-05-15T20:24:56.052Z,4.95
2023-05-15T20:27:36.534Z,5.25
2023-05-15T20:33:28.158Z,4.50
2023-05-15T20:36:19.651Z,4.65
2023-05-15T20:42:01.114Z,4.05
2023-05-15T20:44:41.756Z,4.20
2023-05-15T20:47:25.225Z,4.80
2023-05-15T20:50:06.575Z,4.32
2023-05-15T20:52:42.816Z,5.15
2023-05-15T21:07:50.043Z,6.53
2023-05-15T21:13:30.974Z,6.22
2023-05-15T21:19:18.030Z,6.45
2023-05-15T21:25:04.811Z,7.40
2023-05-15T21:33:37.490Z,6.70
2023-05-15T21:36:08.164Z,6.22
2023-05-15T21:38:58.390Z,6.68
2023-05-15T21:41:45.055Z,7.18
2023-05-15T21:48:03.547Z,5.95
2023-05-15T21:50:33.398Z,5.55
2023-05-15T21:53:02.877Z,5.35
2023-05-15T21:55:32.387Z,5.20
2023-05-15T21:58:14.183Z,6.18
2023-05-15T22:00:59.389Z,5.95
2023-05-15T22:06:45.981Z,4.97
2023-05-15T22:09:20.449Z,5.20
2023-05-15T22:18:09.728Z,6.15
2023-05-15T22:24:44.054Z,7.10
2023-05-15T22:27:23.126Z,5.75
2023-05-15T22:29:53.828Z,5.97
2023-05-15T22:32:22.507Z,6.70
2023-05-15T22:34:51.244Z,6.22
2023-05-15T22:37:21.917Z,5.40
2023-05-15T22:55:14.292Z,6.47
2023-05-15T22:57:47.332Z,7.20
2023-05-15T23:00:16.768Z,7.75
2023-05-15T23:02:46.073Z,7.25
2023-05-15T23:05:14.546Z,5.90
2023-05-15T23:07:43.037Z,5.68
2023-05-15T23:10:13.183Z,5.57
2023-05-15T23:13:06.241Z,5.70
2023-05-15T23:15:48.074Z,5.82
2023-05-15T23:18:18.873Z,5.72
2023-05-15T23:24:05.166Z,5.40
2023-05-15T23:29:52.759Z,6.05
2023-05-15T23:32:27.757Z,6.13
2023-05-15T23:38:17.448Z,6.40
2023-05-15T23:43:58.557Z,5.72
2023-05-15T23:46:31.015Z,5.45
2023-05-15T23:49:06.533Z,6.30
2023-05-15T23:51:43.155Z,5.20
2023-05-15T23:54:13.052Z,5.65
2023-05-15T23:56:42.588Z,5.45
2023-05-15T23:59:12.770Z,4.90
